sensor_id;sensor_type;location;lat;lon;timestamp;pressure;altitude;pressure_sealevel;temperature;humidity
9905;BME280;4991;43.566;27.820;2022-07-23T00:01:18;98860.53;;;20.52;100.00
9905;BME280;4991;43.566;27.820;2022-07-23T00:03:44;98866.13;;;20.56;100.00
9905;BME280;4991;43.566;27.820;2022-07-23T00:06:10;98859.56;;;20.64;100.00
9905;BME280;4991;43.566;27.820;2022-07-23T00:08:36;98856.34;;;20.62;100.00
9905;BME280;4991;43.566;27.820;2022-07-23T00:11:02;98860.78;;;20.66;100.00
9905;BME280;4991;43.566;27.820;2022-07-23T00:13:28;98860.00;;;20.66;100.00
9905;BME280;4991;43.566;27.820;2022-07-23T00:15:53;98860.00;;;20.66;100.00
9905;BME280;4991;43.566;27.820;2022-07-23T00:18:19;98855.53;;;20.61;100.00
9905;BME280;4991;43.566;27.820;2022-07-23T00:20:45;98854.31;;;20.59;100.00
9905;BME280;4991;43.566;27.820;2022-07-23T00:23:10;98852.66;;;20.54;100.00
9905;BME280;4991;43.566;27.820;2022-07-23T00:25:36;98857.25;;;20.46;100.00
9905;BME280;4991;43.566;27.820;2022-07-23T00:28:02;98854.88;;;20.45;100.00
9905;BME280;4991;43.566;27.820;2022-07-23T00:30:29;98849.69;;;20.43;100.00
9905;BME280;4991;43.566;27.820;2022-07-23T00:32:58;98855.22;;;20.43;100.00
9905;BME280;4991;43.566;27.820;2022-07-23T00:35:30;98858.53;;;20.30;100.00
9905;BME280;4991;43.566;27.820;2022-07-23T00:37:56;98859.69;;;20.29;100.00
9905;BME280;4991;43.566;27.820;2022-07-23T00:40:23;98866.75;;;20.26;100.00
9905;BME280;4991;43.566;27.820;2022-07-23T00:42:49;98862.75;;;20.24;100.00
9905;BME280;4991;43.566;27.820;2022-07-23T00:45:15;98859.75;;;20.13;100.00
9905;BME280;4991;43.566;27.820;2022-07-23T00:47:41;98860.00;;;20.24;100.00
9905;BME280;4991;43.566;27.820;2022-07-23T00:50:08;98861.38;;;20.14;100.00
9905;BME280;4991;43.566;27.820;2022-07-23T00:52:35;98867.56;;;20.08;100.00
9905;BME280;4991;43.566;27.820;2022-07-23T00:55:01;98863.53;;;20.05;100.00
9905;BME280;4991;43.566;27.820;2022-07-23T00:57:27;98860.41;;;20.07;100.00
9905;BME280;4991;43.566;27.820;2022-07-23T00:59:53;98862.44;;;20.10;100.00
9905;BME280;4991;43.566;27.820;2022-07-23T01:02:18;98861.88;;;20.20;100.00
9905;BME280;4991;43.566;27.820;2022-07-23T01:04:44;98867.19;;;20.28;100.00
9905;BME280;4991;43.566;27.820;2022-07-23T01:07:10;98858.53;;;20.30;100.00
9905;BME280;4991;43.566;27.820;2022-07-23T01:09:36;98857.50;;;20.38;100.00
9905;BME280;4991;43.566;27.820;2022-07-23T01:12:03;98858.38;;;20.42;100.00
9905;BME280;4991;43.566;27.820;2022-07-23T01:14:28;98853.56;;;20.39;100.00
9905;BME280;4991;43.566;27.820;2022-07-23T01:16:54;98853.50;;;20.35;100.00
9905;BME280;4991;43.566;27.820;2022-07-23T01:19:20;98852.31;;;20.36;100.00
9905;BME280;4991;43.566;27.820;2022-07-23T01:21:51;98853.38;;;20.28;100.00
9905;BME280;4991;43.566;27.820;2022-07-23T01:24:18;98842.91;;;20.18;100.00
9905;BME280;4991;43.566;27.820;2022-07-23T01:26:48;98845.94;;;20.13;100.00
9905;BME280;4991;43.566;27.820;2022-07-23T01:29:14;98839.91;;;20.08;100.00
9905;BME280;4991;43.566;27.820;2022-07-23T01:31:41;98847.91;;;20.13;100.00
9905;BME280;4991;43.566;27.820;2022-07-23T01:34:07;98844.06;;;20.17;100.00
9905;BME280;4991;43.566;27.820;2022-07-23T01:36:34;98848.78;;;20.17;100.00
9905;BME280;4991;43.566;27.820;2022-07-23T01:39:00;98842.16;;;20.02;100.00
9905;BME280;4991;43.566;27.820;2022-07-23T01:41:25;98844.19;;;20.05;100.00
9905;BME280;4991;43.566;27.820;2022-07-23T01:43:51;98839.75;;;20.01;100.00
9905;BME280;4991;43.566;27.820;2022-07-23T01:46:17;98842.31;;;19.90;100.00
9905;BME280;4991;43.566;27.820;2022-07-23T01:48:43;98843.97;;;19.95;100.00
9905;BME280;4991;43.566;27.820;2022-07-23T01:51:08;98839.25;;;19.95;100.00
9905;BME280;4991;43.566;27.820;2022-07-23T01:53:34;98843.63;;;19.96;100.00
9905;BME280;4991;43.566;27.820;2022-07-23T01:56:00;98845.50;;;19.92;100.00
9905;BME280;4991;43.566;27.820;2022-07-23T01:58:27;98843.25;;;19.79;100.00
9905;BME280;4991;43.566;27.820;2022-07-23T02:00:53;98838.22;;;19.84;100.00
9905;BME280;4991;43.566;27.820;2022-07-23T02:03:19;98839.25;;;19.95;100.00
9905;BME280;4991;43.566;27.820;2022-07-23T02:05:45;98849.00;;;19.89;100.00
9905;BME280;4991;43.566;27.820;2022-07-23T02:08:11;98843.03;;;19.87;100.00
9905;BME280;4991;43.566;27.820;2022-07-23T02:10:37;98847.25;;;19.81;100.00
9905;BME280;4991;43.566;27.820;2022-07-23T02:13:03;98849.59;;;19.79;100.00
9905;BME280;4991;43.566;27.820;2022-07-23T02:15:28;98841.44;;;19.86;100.00
9905;BME280;4991;43.566;27.820;2022-07-23T02:17:55;98842.59;;;19.85;100.00
9905;BME280;4991;43.566;27.820;2022-07-23T02:20:21;98838.09;;;19.77;100.00
9905;BME280;4991;43.566;27.820;2022-07-23T02:22:47;98849.28;;;19.84;100.00
9905;BME280;4991;43.566;27.820;2022-07-23T02:25:13;98849.22;;;19.81;100.00
9905;BME280;4991;43.566;27.820;2022-07-23T02:27:39;98845.72;;;19.84;100.00
9905;BME280;4991;43.566;27.820;2022-07-23T02:30:05;98853.50;;;19.78;100.00
9905;BME280;4991;43.566;27.820;2022-07-23T02:32:31;98843.38;;;19.67;100.00
9905;BME280;4991;43.566;27.820;2022-07-23T02:34:57;98849.78;;;19.71;100.00
9905;BME280;4991;43.566;27.820;2022-07-23T02:37:23;98845.72;;;19.65;100.00
9905;BME280;4991;43.566;27.820;2022-07-23T02:39:48;98847.22;;;19.62;100.00
9905;BME280;4991;43.566;27.820;2022-07-23T02:42:15;98848.84;;;19.63;100.00
9905;BME280;4991;43.566;27.820;2022-07-23T02:44:41;98848.31;;;19.58;100.00
9905;BME280;4991;43.566;27.820;2022-07-23T02:47:07;98849.47;;;19.57;100.00
9905;BME280;4991;43.566;27.820;2022-07-23T02:49:33;98845.56;;;19.58;100.00
9905;BME280;4991;43.566;27.820;2022-07-23T02:51:58;98848.69;;;19.56;100.00
9905;BME280;4991;43.566;27.820;2022-07-23T02:54:24;98856.16;;;19.56;100.00
9905;BME280;4991;43.566;27.820;2022-07-23T02:56:50;98853.41;;;19.56;100.00
9905;BME280;4991;43.566;27.820;2022-07-23T02:59:18;98858.03;;;19.52;100.00
9905;BME280;4991;43.566;27.820;2022-07-23T03:01:44;98850.84;;;19.47;100.00
9905;BME280;4991;43.566;27.820;2022-07-23T03:04:11;98853.69;;;19.51;100.00
9905;BME280;4991;43.566;27.820;2022-07-23T03:06:37;98861.41;;;19.61;100.00
9905;BME280;4991;43.566;27.820;2022-07-23T03:09:05;98869.81;;;19.49;100.00
9905;BME280;4991;43.566;27.820;2022-07-23T03:11:31;98866.59;;;19.47;100.00
9905;BME280;4991;43.566;27.820;2022-07-23T03:13:57;98864.19;;;19.45;100.00
9905;BME280;4991;43.566;27.820;2022-07-23T03:16:22;98878.53;;;19.51;100.00
9905;BME280;4991;43.566;27.820;2022-07-23T03:18:48;98875.34;;;19.49;100.00
9905;BME280;4991;43.566;27.820;2022-07-23T03:21:14;98879.28;;;19.48;100.00
9905;BME280;4991;43.566;27.820;2022-07-23T03:23:40;98875.63;;;19.44;100.00
9905;BME280;4991;43.566;27.820;2022-07-23T03:26:05;98877.72;;;19.50;100.00
9905;BME280;4991;43.566;27.820;2022-07-23T03:28:31;98884.06;;;19.51;100.00
9905;BME280;4991;43.566;27.820;2022-07-23T03:30:56;98887.88;;;19.62;100.00
9905;BME280;4991;43.566;27.820;2022-07-23T03:33:22;98881.84;;;19.56;100.00
9905;BME280;4991;43.566;27.820;2022-07-23T03:35:48;98881.09;;;19.59;100.00
9905;BME280;4991;43.566;27.820;2022-07-23T03:38:14;98889.84;;;19.61;100.00
9905;BME280;4991;43.566;27.820;2022-07-23T03:40:40;98888.31;;;19.64;100.00
9905;BME280;4991;43.566;27.820;2022-07-23T03:43:06;98887.75;;;19.74;100.00
9905;BME280;4991;43.566;27.820;2022-07-23T03:45:32;98890.88;;;19.72;100.00
9905;BME280;4991;43.566;27.820;2022-07-23T03:47:58;98880.72;;;19.76;100.00
9905;BME280;4991;43.566;27.820;2022-07-23T03:50:24;98886.44;;;19.87;100.00
9905;BME280;4991;43.566;27.820;2022-07-23T03:52:50;98883.31;;;19.88;100.00
9905;BME280;4991;43.566;27.820;2022-07-23T03:55:15;98886.03;;;20.04;100.00
9905;BME280;4991;43.566;27.820;2022-07-23T03:57:42;98885.88;;;19.97;100.00
9905;BME280;4991;43.566;27.820;2022-07-23T04:00:08;98879.19;;;19.98;100.00
9905;BME280;4991;43.566;27.820;2022-07-23T04:02:36;98887.63;;;20.05;100.00
9905;BME280;4991;43.566;27.820;2022-07-23T04:05:02;98889.72;;;20.11;100.00
9905;BME280;4991;43.566;27.820;2022-07-23T04:07:28;98892.22;;;20.16;100.00
9905;BME280;4991;43.566;27.820;2022-07-23T04:09:53;98882.84;;;20.21;100.00
9905;BME280;4991;43.566;27.820;2022-07-23T04:12:19;98888.81;;;20.23;100.00
9905;BME280;4991;43.566;27.820;2022-07-23T04:14:45;98888.50;;;20.28;100.00
9905;BME280;4991;43.566;27.820;2022-07-23T04:17:11;98892.00;;;20.44;100.00
9905;BME280;4991;43.566;27.820;2022-07-23T04:19:37;98894.19;;;20.54;100.00
9905;BME280;4991;43.566;27.820;2022-07-23T04:22:06;98892.25;;;20.58;100.00
9905;BME280;4991;43.566;27.820;2022-07-23T04:24:32;98892.09;;;20.70;100.00
9905;BME280;4991;43.566;27.820;2022-07-23T04:26:58;98898.63;;;20.81;100.00
9905;BME280;4991;43.566;27.820;2022-07-23T04:29:24;98898.31;;;20.86;100.00
9905;BME280;4991;43.566;27.820;2022-07-23T04:31:50;98900.84;;;20.95;100.00
9905;BME280;4991;43.566;27.820;2022-07-23T04:34:16;98898.72;;;21.07;100.00
9905;BME280;4991;43.566;27.820;2022-07-23T04:36:42;98897.78;;;21.22;100.00
9905;BME280;4991;43.566;27.820;2022-07-23T04:39:08;98898.31;;;21.31;100.00
9905;BME280;4991;43.566;27.820;2022-07-23T04:41:34;98897.75;;;21.45;100.00
9905;BME280;4991;43.566;27.820;2022-07-23T04:44:00;98897.91;;;21.55;100.00
9905;BME280;4991;43.566;27.820;2022-07-23T04:46:26;98902.00;;;21.65;100.00
9905;BME280;4991;43.566;27.820;2022-07-23T04:48:51;98901.81;;;21.77;100.00
9905;BME280;4991;43.566;27.820;2022-07-23T04:51:17;98898.38;;;21.87;100.00
9905;BME280;4991;43.566;27.820;2022-07-23T04:53:43;98902.47;;;21.97;100.00
9905;BME280;4991;43.566;27.820;2022-07-23T04:56:08;98908.94;;;22.08;100.00
9905;BME280;4991;43.566;27.820;2022-07-23T04:58:34;98910.69;;;22.19;100.00
9905;BME280;4991;43.566;27.820;2022-07-23T05:01:00;98909.22;;;22.29;100.00
9905;BME280;4991;43.566;27.820;2022-07-23T05:03:26;98910.97;;;22.44;100.00
9905;BME280;4991;43.566;27.820;2022-07-23T05:05:51;98913.97;;;22.58;100.00
9905;BME280;4991;43.566;27.820;2022-07-23T05:08:17;98909.31;;;22.69;100.00
9905;BME280;4991;43.566;27.820;2022-07-23T05:10:43;98911.47;;;22.86;100.00
9905;BME280;4991;43.566;27.820;2022-07-23T05:13:09;98918.75;;;23.01;100.00
9905;BME280;4991;43.566;27.820;2022-07-23T05:15:34;98924.84;;;23.17;100.00
9905;BME280;4991;43.566;27.820;2022-07-23T05:18:00;98922.25;;;23.35;100.00
9905;BME280;4991;43.566;27.820;2022-07-23T05:20:26;98920.81;;;23.55;100.00
9905;BME280;4991;43.566;27.820;2022-07-23T05:22:52;98921.66;;;23.62;100.00
9905;BME280;4991;43.566;27.820;2022-07-23T05:25:18;98921.34;;;23.78;100.00
9905;BME280;4991;43.566;27.820;2022-07-23T05:27:43;98916.75;;;23.99;100.00
9905;BME280;4991;43.566;27.820;2022-07-23T05:30:10;98920.81;;;24.16;100.00
9905;BME280;4991;43.566;27.820;2022-07-23T05:32:35;98907.34;;;24.25;100.00
9905;BME280;4991;43.566;27.820;2022-07-23T05:35:06;98920.91;;;24.34;100.00
9905;BME280;4991;43.566;27.820;2022-07-23T05:37:32;98910.19;;;24.43;100.00
9905;BME280;4991;43.566;27.820;2022-07-23T05:40:03;98910.22;;;24.53;100.00
9905;BME280;4991;43.566;27.820;2022-07-23T05:42:28;98909.84;;;24.62;100.00
9905;BME280;4991;43.566;27.820;2022-07-23T05:44:55;98915.09;;;24.74;100.00
9905;BME280;4991;43.566;27.820;2022-07-23T05:47:21;98912.69;;;24.76;100.00
9905;BME280;4991;43.566;27.820;2022-07-23T05:49:47;98919.06;;;24.80;100.00
9905;BME280;4991;43.566;27.820;2022-07-23T05:52:13;98915.91;;;24.99;100.00
9905;BME280;4991;43.566;27.820;2022-07-23T05:54:38;98915.91;;;24.99;100.00
9905;BME280;4991;43.566;27.820;2022-07-23T05:57:05;98913.50;;;24.73;100.00
9905;BME280;4991;43.566;27.820;2022-07-23T05:59:31;98921.72;;;24.45;100.00
9905;BME280;4991;43.566;27.820;2022-07-23T06:01:56;98923.66;;;24.27;100.00
9905;BME280;4991;43.566;27.820;2022-07-23T06:04:23;98922.41;;;24.17;100.00
9905;BME280;4991;43.566;27.820;2022-07-23T06:06:48;98928.38;;;24.15;100.00
9905;BME280;4991;43.566;27.820;2022-07-23T06:09:14;98922.78;;;24.08;100.00
9905;BME280;4991;43.566;27.820;2022-07-23T06:11:40;98921.91;;;23.97;100.00
9905;BME280;4991;43.566;27.820;2022-07-23T06:14:13;98926.22;;;23.91;100.00
9905;BME280;4991;43.566;27.820;2022-07-23T06:19:44;98934.25;;;24.00;100.00
9905;BME280;4991;43.566;27.820;2022-07-23T06:22:30;98929.19;;;24.19;100.00
9905;BME280;4991;43.566;27.820;2022-07-23T06:27:50;98934.44;;;24.35;100.00
9905;BME280;4991;43.566;27.820;2022-07-23T06:30:17;98928.06;;;24.35;100.00
9905;BME280;4991;43.566;27.820;2022-07-23T06:32:47;98924.50;;;24.45;100.00
9905;BME280;4991;43.566;27.820;2022-07-23T06:35:14;98925.72;;;24.47;100.00
9905;BME280;4991;43.566;27.820;2022-07-23T06:37:44;98916.19;;;24.48;100.00
9905;BME280;4991;43.566;27.820;2022-07-23T06:40:10;98925.75;;;24.58;100.00
9905;BME280;4991;43.566;27.820;2022-07-23T06:42:38;98921.78;;;24.66;100.00
9905;BME280;4991;43.566;27.820;2022-07-23T06:45:05;98933.03;;;24.83;100.00
9905;BME280;4991;43.566;27.820;2022-07-23T06:47:31;98936.16;;;24.71;100.00
9905;BME280;4991;43.566;27.820;2022-07-23T06:49:58;98925.38;;;24.66;100.00
9905;BME280;4991;43.566;27.820;2022-07-23T06:52:33;98931.34;;;24.65;100.00
9905;BME280;4991;43.566;27.820;2022-07-23T06:54:58;98925.84;;;24.79;100.00
9905;BME280;4991;43.566;27.820;2022-07-23T06:57:26;98927.88;;;24.99;100.00
9905;BME280;4991;43.566;27.820;2022-07-23T07:00:24;98925.91;;;25.21;100.00
9905;BME280;4991;43.566;27.820;2022-07-23T07:02:53;98920.72;;;25.30;100.00
9905;BME280;4991;43.566;27.820;2022-07-23T07:08:29;98930.69;;;25.27;100.00
9905;BME280;4991;43.566;27.820;2022-07-23T07:11:02;98929.47;;;25.14;100.00
9905;BME280;4991;43.566;27.820;2022-07-23T07:13:35;98927.06;;;25.06;100.00
9905;BME280;4991;43.566;27.820;2022-07-23T07:16:10;98934.25;;;25.03;100.00
9905;BME280;4991;43.566;27.820;2022-07-23T07:18:43;98929.06;;;25.02;100.00
9905;BME280;4991;43.566;27.820;2022-07-23T07:21:10;98929.09;;;25.37;100.00
9905;BME280;4991;43.566;27.820;2022-07-23T07:24:02;98933.44;;;25.84;100.00
9905;BME280;4991;43.566;27.820;2022-07-23T07:26:28;98935.84;;;25.89;100.00
9905;BME280;4991;43.566;27.820;2022-07-23T07:29:07;98936.19;;;26.12;100.00
9905;BME280;4991;43.566;27.820;2022-07-23T07:31:35;98936.78;;;26.61;93.48
9905;BME280;4991;43.566;27.820;2022-07-23T07:40:46;98930.19;;;27.58;90.98
9905;BME280;4991;43.566;27.820;2022-07-23T07:43:12;98925.22;;;27.76;88.54
9905;BME280;4991;43.566;27.820;2022-07-23T07:45:37;98926.25;;;27.96;87.84
9905;BME280;4991;43.566;27.820;2022-07-23T07:48:04;98927.59;;;28.18;88.91
9905;BME280;4991;43.566;27.820;2022-07-23T07:53:42;98925.00;;;28.34;86.18
9905;BME280;4991;43.566;27.820;2022-07-23T07:56:13;98932.06;;;28.49;81.86
9905;BME280;4991;43.566;27.820;2022-07-23T07:58:46;98928.31;;;28.59;80.85
9905;BME280;4991;43.566;27.820;2022-07-23T08:01:20;98944.28;;;28.62;80.47
9905;BME280;4991;43.566;27.820;2022-07-23T08:03:54;98936.97;;;28.72;77.85
9905;BME280;4991;43.566;27.820;2022-07-23T08:06:42;98936.81;;;28.49;78.37
9905;BME280;4991;43.566;27.820;2022-07-23T08:09:16;98933.06;;;27.95;83.35
9905;BME280;4991;43.566;27.820;2022-07-23T08:11:43;98934.19;;;27.60;87.95
9905;BME280;4991;43.566;27.820;2022-07-23T08:14:09;98933.47;;;27.49;90.24
9905;BME280;4991;43.566;27.820;2022-07-23T08:19:43;98935.06;;;27.95;88.91
9905;BME280;4991;43.566;27.820;2022-07-23T08:22:10;98932.94;;;28.39;85.40
9905;BME280;4991;43.566;27.820;2022-07-23T08:27:44;98942.31;;;28.89;83.07
9905;BME280;4991;43.566;27.820;2022-07-23T08:30:11;98944.09;;;29.06;84.46
9905;BME280;4991;43.566;27.820;2022-07-23T08:32:56;98937.75;;;29.29;82.08
9905;BME280;4991;43.566;27.820;2022-07-23T08:35:43;98934.91;;;29.56;79.85
9905;BME280;4991;43.566;27.820;2022-07-23T08:38:11;98930.50;;;29.55;77.36
9905;BME280;4991;43.566;27.820;2022-07-23T08:40:39;98934.16;;;29.52;79.32
9905;BME280;4991;43.566;27.820;2022-07-23T08:43:07;98933.53;;;29.67;77.32
9905;BME280;4991;43.566;27.820;2022-07-23T08:45:36;98928.31;;;29.89;74.69
9905;BME280;4991;43.566;27.820;2022-07-23T08:48:03;98927.84;;;30.13;75.41
9905;BME280;4991;43.566;27.820;2022-07-23T08:50:30;98930.09;;;30.22;76.28
9905;BME280;4991;43.566;27.820;2022-07-23T08:52:58;98926.16;;;30.39;72.44
9905;BME280;4991;43.566;27.820;2022-07-23T08:55:24;98929.91;;;30.52;73.33
9905;BME280;4991;43.566;27.820;2022-07-23T08:57:51;98927.13;;;30.68;72.45
9905;BME280;4991;43.566;27.820;2022-07-23T09:00:19;98931.53;;;30.69;70.51
9905;BME280;4991;43.566;27.820;2022-07-23T09:02:46;98930.66;;;30.92;70.71
9905;BME280;4991;43.566;27.820;2022-07-23T09:05:12;98934.00;;;31.03;67.34
9905;BME280;4991;43.566;27.820;2022-07-23T09:11:03;98933.16;;;30.51;68.39
9905;BME280;4991;43.566;27.820;2022-07-23T09:16:02;98933.19;;;29.85;73.20
9905;BME280;4991;43.566;27.820;2022-07-23T09:21:10;98930.63;;;29.94;70.36
9905;BME280;4991;43.566;27.820;2022-07-23T09:23:53;98919.34;;;30.17;72.26
9905;BME280;4991;43.566;27.820;2022-07-23T09:26:22;98924.59;;;30.74;69.15
9905;BME280;4991;43.566;27.820;2022-07-23T09:28:53;98919.88;;;31.06;70.05
9905;BME280;4991;43.566;27.820;2022-07-23T09:31:19;98924.72;;;31.22;67.85
9905;BME280;4991;43.566;27.820;2022-07-23T09:33:45;98918.16;;;31.44;64.42
9905;BME280;4991;43.566;27.820;2022-07-23T09:36:11;98919.56;;;31.69;63.25
9905;BME280;4991;43.566;27.820;2022-07-23T09:38:48;98915.31;;;31.77;62.43
9905;BME280;4991;43.566;27.820;2022-07-23T09:41:14;98908.09;;;31.92;62.52
9905;BME280;4991;43.566;27.820;2022-07-23T09:43:39;98916.47;;;31.95;65.99
9905;BME280;4991;43.566;27.820;2022-07-23T09:46:21;98910.91;;;32.20;64.15
9905;BME280;4991;43.566;27.820;2022-07-23T09:48:54;98904.16;;;32.46;59.81
9905;BME280;4991;43.566;27.820;2022-07-23T09:51:22;98901.94;;;34.01;59.00
9905;BME280;4991;43.566;27.820;2022-07-23T09:53:53;98918.56;;;37.00;47.21
9905;BME280;4991;43.566;27.820;2022-07-23T09:56:20;98904.63;;;38.53;39.68
9905;BME280;4991;43.566;27.820;2022-07-23T09:58:45;98894.88;;;39.87;35.72
9905;BME280;4991;43.566;27.820;2022-07-23T10:01:15;98894.00;;;41.66;32.06
9905;BME280;4991;43.566;27.820;2022-07-23T10:03:42;98902.63;;;42.30;29.17
9905;BME280;4991;43.566;27.820;2022-07-23T10:06:13;98896.09;;;42.24;27.79
9905;BME280;4991;43.566;27.820;2022-07-23T10:08:42;98895.31;;;42.29;26.22
9905;BME280;4991;43.566;27.820;2022-07-23T10:11:10;98889.72;;;41.45;27.26
9905;BME280;4991;43.566;27.820;2022-07-23T10:13:38;98892.53;;;41.02;26.90
9905;BME280;4991;43.566;27.820;2022-07-23T10:16:25;98896.34;;;40.94;27.48
9905;BME280;4991;43.566;27.820;2022-07-23T10:18:50;98890.78;;;41.11;27.23
9905;BME280;4991;43.566;27.820;2022-07-23T10:24:30;98887.38;;;41.91;25.44
9905;BME280;4991;43.566;27.820;2022-07-23T10:30:07;98879.19;;;44.38;23.24
9905;BME280;4991;43.566;27.820;2022-07-23T10:32:43;98873.84;;;43.33;23.94
9905;BME280;4991;43.566;27.820;2022-07-23T10:37:59;98879.16;;;41.20;26.33
9905;BME280;4991;43.566;27.820;2022-07-23T10:40:26;98872.69;;;41.61;25.42
9905;BME280;4991;43.566;27.820;2022-07-23T10:42:59;98881.38;;;42.92;23.54
9905;BME280;4991;43.566;27.820;2022-07-23T10:47:54;98878.50;;;43.30;24.26
9905;BME280;4991;43.566;27.820;2022-07-23T10:50:24;98872.28;;;42.82;24.11
9905;BME280;4991;43.566;27.820;2022-07-23T10:58:01;98862.19;;;44.40;22.62
9905;BME280;4991;43.566;27.820;2022-07-23T11:00:31;98859.00;;;46.79;20.32
9905;BME280;4991;43.566;27.820;2022-07-23T11:03:02;98859.44;;;45.23;21.04
9905;BME280;4991;43.566;27.820;2022-07-23T11:05:43;98847.13;;;45.28;20.72
9905;BME280;4991;43.566;27.820;2022-07-23T11:13:32;98846.97;;;45.45;20.15
9905;BME280;4991;43.566;27.820;2022-07-23T11:24:11;98833.88;;;45.44;19.85
9905;BME280;4991;43.566;27.820;2022-07-23T11:32:00;98820.50;;;45.46;20.16
9905;BME280;4991;43.566;27.820;2022-07-23T11:37:05;98836.19;;;45.69;20.17
9905;BME280;4991;43.566;27.820;2022-07-23T11:39:34;98839.91;;;46.95;18.43
9905;BME280;4991;43.566;27.820;2022-07-23T11:42:01;98841.28;;;45.82;18.91
9905;BME280;4991;43.566;27.820;2022-07-23T11:44:38;98839.91;;;45.16;19.58
9905;BME280;4991;43.566;27.820;2022-07-23T11:47:06;98840.06;;;44.65;19.72
9905;BME280;4991;43.566;27.820;2022-07-23T11:49:33;98832.84;;;44.88;19.91
9905;BME280;4991;43.566;27.820;2022-07-23T11:52:10;98829.38;;;44.65;20.29
9905;BME280;4991;43.566;27.820;2022-07-23T11:54:57;98837.94;;;43.84;20.04
9905;BME280;4991;43.566;27.820;2022-07-23T11:57:50;98830.50;;;43.48;20.43
9905;BME280;4991;43.566;27.820;2022-07-23T12:00:19;98826.66;;;43.17;20.86
9905;BME280;4991;43.566;27.820;2022-07-23T12:02:57;98826.13;;;43.24;20.65
9905;BME280;4991;43.566;27.820;2022-07-23T12:05:30;98828.28;;;44.33;19.75
9905;BME280;4991;43.566;27.820;2022-07-23T12:07:57;98820.66;;;45.06;19.05
9905;BME280;4991;43.566;27.820;2022-07-23T12:10:43;98833.47;;;45.77;17.79
9905;BME280;4991;43.566;27.820;2022-07-23T12:13:17;98844.22;;;45.77;16.98
9905;BME280;4991;43.566;27.820;2022-07-23T12:15:46;98824.78;;;45.83;17.67
9905;BME280;4991;43.566;27.820;2022-07-23T12:18:15;98831.94;;;46.82;16.59
9905;BME280;4991;43.566;27.820;2022-07-23T12:20:44;98822.41;;;47.45;15.67
9905;BME280;4991;43.566;27.820;2022-07-23T12:23:17;98820.28;;;47.84;15.58
9905;BME280;4991;43.566;27.820;2022-07-23T12:25:45;98822.53;;;46.50;22.16
9905;BME280;4991;43.566;27.820;2022-07-23T12:30:44;98819.88;;;46.15;23.89
9905;BME280;4991;43.566;27.820;2022-07-23T12:33:12;98812.97;;;45.86;24.30
9905;BME280;4991;43.566;27.820;2022-07-23T12:35:38;98818.56;;;46.34;24.16
9905;BME280;4991;43.566;27.820;2022-07-23T12:38:14;98826.22;;;46.95;24.24
9905;BME280;4991;43.566;27.820;2022-07-23T12:40:49;98818.50;;;46.03;25.46
9905;BME280;4991;43.566;27.820;2022-07-23T12:43:26;98816.06;;;46.44;25.00
9905;BME280;4991;43.566;27.820;2022-07-23T12:45:56;98809.38;;;46.99;24.57
9905;BME280;4991;43.566;27.820;2022-07-23T12:51:02;98815.72;;;46.66;24.89
9905;BME280;4991;43.566;27.820;2022-07-23T12:53:31;98817.81;;;45.97;25.22
9905;BME280;4991;43.566;27.820;2022-07-23T12:56:07;98808.34;;;44.11;27.78
9905;BME280;4991;43.566;27.820;2022-07-23T12:59:08;98808.72;;;42.95;30.23
9905;BME280;4991;43.566;27.820;2022-07-23T13:01:43;98812.97;;;43.68;29.97
9905;BME280;4991;43.566;27.820;2022-07-23T13:04:21;98805.97;;;43.52;30.04
9905;BME280;4991;43.566;27.820;2022-07-23T13:06:49;98814.34;;;43.45;30.09
9905;BME280;4991;43.566;27.820;2022-07-23T13:09:17;98808.88;;;44.09;29.08
9905;BME280;4991;43.566;27.820;2022-07-23T13:11:44;98811.66;;;43.69;29.10
9905;BME280;4991;43.566;27.820;2022-07-23T13:14:11;98808.63;;;44.02;28.84
9905;BME280;4991;43.566;27.820;2022-07-23T13:16:39;98806.00;;;44.80;28.15
9905;BME280;4991;43.566;27.820;2022-07-23T13:19:05;98808.13;;;45.03;27.43
9905;BME280;4991;43.566;27.820;2022-07-23T13:21:32;98812.78;;;44.47;27.99
9905;BME280;4991;43.566;27.820;2022-07-23T13:23:57;98808.22;;;42.74;30.10
9905;BME280;4991;43.566;27.820;2022-07-23T13:26:24;98806.00;;;42.03;32.01
9905;BME280;4991;43.566;27.820;2022-07-23T13:28:49;98809.97;;;42.33;31.40
9905;BME280;4991;43.566;27.820;2022-07-23T13:31:16;98814.78;;;41.88;32.10
9905;BME280;4991;43.566;27.820;2022-07-23T13:33:41;98803.47;;;42.44;31.70
9905;BME280;4991;43.566;27.820;2022-07-23T13:36:07;98803.69;;;44.02;29.57
9905;BME280;4991;43.566;27.820;2022-07-23T13:38:33;98814.44;;;43.85;29.24
9905;BME280;4991;43.566;27.820;2022-07-23T13:40:58;98810.06;;;44.25;28.45
9905;BME280;4991;43.566;27.820;2022-07-23T13:43:24;98812.03;;;44.76;27.95
9905;BME280;4991;43.566;27.820;2022-07-23T13:45:51;98804.47;;;45.03;27.54
9905;BME280;4991;43.566;27.820;2022-07-23T13:48:18;98809.88;;;43.49;28.68
9905;BME280;4991;43.566;27.820;2022-07-23T13:50:44;98806.63;;;42.90;29.42
9905;BME280;4991;43.566;27.820;2022-07-23T13:53:13;98814.63;;;44.04;28.25
9905;BME280;4991;43.566;27.820;2022-07-23T13:55:40;98814.66;;;43.24;28.41
9905;BME280;4991;43.566;27.820;2022-07-23T13:58:08;98813.34;;;44.45;27.53
9905;BME280;4991;43.566;27.820;2022-07-23T14:00:36;98813.91;;;44.38;27.67
9905;BME280;4991;43.566;27.820;2022-07-23T14:03:02;98815.66;;;45.12;26.03
9905;BME280;4991;43.566;27.820;2022-07-23T14:05:28;98807.38;;;44.38;26.64
9905;BME280;4991;43.566;27.820;2022-07-23T14:07:53;98808.97;;;44.28;27.09
9905;BME280;4991;43.566;27.820;2022-07-23T14:10:20;98830.13;;;44.36;26.57
9905;BME280;4991;43.566;27.820;2022-07-23T14:12:47;98827.16;;;42.33;28.23
9905;BME280;4991;43.566;27.820;2022-07-23T14:15:13;98824.03;;;43.30;27.58
9905;BME280;4991;43.566;27.820;2022-07-23T14:17:41;98828.50;;;43.04;27.62
9905;BME280;4991;43.566;27.820;2022-07-23T14:20:08;98826.34;;;42.21;28.77
9905;BME280;4991;43.566;27.820;2022-07-23T14:22:34;98824.75;;;43.53;27.32
9905;BME280;4991;43.566;27.820;2022-07-23T14:24:59;98825.44;;;44.27;26.36
9905;BME280;4991;43.566;27.820;2022-07-23T14:27:27;98829.81;;;42.75;27.47